Time;durP1;ratioP1;P1;durP2;ratioP2;P2;SDS_P1;SDS_P2;PMS_P1;PMS_P2;Temp;Humidity;BMP_temperature;BMP_pressure;BME280_temperature;BME280_humidity;BME280_pressure;Samples;Min_cycle;Max_cycle;Signal;HPM_P1;HPM_P2
2023/06/13 00:01:25;;;;;;;5.32;2.70;;;;;;;24.40;27.40;101335.22;5033957;27;102802;-62
2023/06/13 00:03:52;;;;;;;3.67;2.30;;;;;;;24.51;26.97;101334.31;5039621;27;96823;-62
2023/06/13 00:06:19;;;;;;;3.42;2.08;;;;;;;24.63;26.68;101335.97;5036903;27;97833;-62
2023/06/13 00:08:47;;;;;;;2.25;1.88;;;;;;;24.65;26.72;101322.31;5040400;27;99050;-62
2023/06/13 00:11:13;;;;;;;5.13;2.30;;;;;;;24.69;26.33;101323.75;5031375;27;97663;-61
2023/06/13 00:13:40;;;;;;;3.17;2.10;;;;;;;24.63;26.46;101327.84;5037947;27;96686;-62
2023/06/13 00:16:07;;;;;;;6.30;2.20;;;;;;;24.65;26.28;101327.72;5032702;27;96880;-62
2023/06/13 00:18:37;;;;;;;7.15;1.95;;;;;;;24.46;26.65;101318.50;5031045;27;99103;-62
2023/06/13 00:21:06;;;;;;;2.38;2.10;;;;;;;24.54;26.70;101326.81;5038099;27;98742;-61
2023/06/13 00:23:32;;;;;;;6.47;2.47;;;;;;;24.31;27.00;101324.31;5038338;27;97031;-62
2023/06/13 00:25:59;;;;;;;4.57;1.98;;;;;;;24.17;26.85;101322.75;5034732;27;97471;-65
2023/06/13 00:28:25;;;;;;;5.43;2.10;;;;;;;24.34;26.73;101318.69;5038265;27;98775;-62
2023/06/13 00:30:52;;;;;;;7.25;2.10;;;;;;;24.47;26.69;101313.94;5030564;27;99249;-63
2023/06/13 00:33:18;;;;;;;3.38;1.77;;;;;;;24.30;27.46;101318.06;5028281;27;97615;-63
2023/06/13 00:35:46;;;;;;;3.50;1.98;;;;;;;24.26;27.10;101311.22;5027500;27;97400;-62
2023/06/13 00:38:13;;;;;;;8.80;1.88;;;;;;;24.32;26.83;101309.84;5028232;27;98828;-62
2023/06/13 00:40:40;;;;;;;3.00;2.10;;;;;;;24.37;27.17;101313.00;5028801;27;98964;-62
2023/06/13 00:43:06;;;;;;;5.35;2.13;;;;;;;24.39;27.40;101306.50;5030656;27;96798;-62
2023/06/13 00:45:34;;;;;;;2.20;2.00;;;;;;;24.31;26.96;101308.13;5034581;27;96803;-62
2023/06/13 00:48:03;;;;;;;5.00;2.10;;;;;;;24.34;27.59;101297.94;5030836;27;101801;-62
2023/06/13 00:50:33;;;;;;;3.22;2.00;;;;;;;24.27;27.20;101302.13;5039235;27;98884;-62
2023/06/13 00:53:03;;;;;;;7.10;2.13;;;;;;;24.29;27.26;101301.97;5036437;27;97970;-63
2023/06/13 00:55:30;;;;;;;7.97;2.15;;;;;;;23.78;27.65;101298.06;5038546;27;97065;-61
2023/06/13 00:57:58;;;;;;;4.10;2.38;;;;;;;24.22;27.34;101297.09;5036152;27;99856;-63
2023/06/13 01:00:25;;;;;;;4.80;2.05;;;;;;;24.22;27.12;101299.78;5033699;27;99159;-63
2023/06/13 01:02:55;;;;;;;7.95;2.78;;;;;;;24.20;27.04;101291.00;5036733;27;97086;-62
2023/06/13 01:05:22;;;;;;;11.68;2.30;;;;;;;24.04;27.35;101295.03;5039973;27;97058;-61
2023/06/13 01:07:48;;;;;;;3.25;2.47;;;;;;;24.14;27.74;101294.16;5037576;27;99159;-62
2023/06/13 01:10:16;;;;;;;3.35;2.22;;;;;;;24.19;27.51;101289.25;5038546;27;99022;-62
2023/06/13 01:12:57;;;;;;;4.82;2.13;;;;;;;24.07;27.79;101295.66;5034509;27;96753;-62
2023/06/13 01:15:25;;;;;;;3.60;1.90;;;;;;;24.11;27.64;101297.13;5036647;27;96915;-62
2023/06/13 01:17:57;;;;;;;2.28;2.08;;;;;;;24.16;27.70;101300.28;5043719;27;99201;-62
2023/06/13 01:20:26;;;;;;;4.15;2.53;;;;;;;24.03;27.38;101287.94;5035350;27;98095;-63
2023/06/13 01:22:57;;;;;;;13.20;2.17;;;;;;;24.03;27.70;101287.94;5040931;27;96834;-62
2023/06/13 01:25:38;;;;;;;5.15;2.25;;;;;;;23.89;28.00;101291.81;5036560;27;97192;-62
2023/06/13 01:28:08;;;;;;;5.15;2.10;;;;;;;23.96;28.15;101295.69;5037355;27;97635;-62
2023/06/13 01:30:35;;;;;;;4.80;2.00;;;;;;;23.86;28.02;101293.88;5035647;27;98996;-63
2023/06/13 01:33:03;;;;;;;2.92;1.83;;;;;;;24.06;27.91;101296.66;5038658;27;96647;-61
2023/06/13 01:35:31;;;;;;;3.42;1.95;;;;;;;23.95;27.78;101291.28;5035028;27;96735;-64
2023/06/13 01:37:58;;;;;;;3.42;2.08;;;;;;;23.92;27.66;101290.66;5037445;27;97746;-62
2023/06/13 01:40:24;;;;;;;3.63;2.42;;;;;;;23.73;28.08;101292.19;5037546;27;98801;-63
2023/06/13 01:42:50;;;;;;;4.35;2.10;;;;;;;23.53;28.37;101292.09;5032999;27;97025;-63
2023/06/13 01:45:18;;;;;;;3.75;2.15;;;;;;;23.67;28.42;101291.84;5032887;27;97095;-61
2023/06/13 01:47:54;;;;;;;2.33;1.90;;;;;;;23.53;28.35;101284.88;5029531;27;99354;-61
2023/06/13 01:50:26;;;;;;;2.17;1.60;;;;;;;23.47;28.54;101285.38;5037274;27;100505;-61
2023/06/13 01:53:00;;;;;;;3.75;2.05;;;;;;;23.40;28.59;101287.66;5034039;27;99326;-62
2023/06/13 01:55:33;;;;;;;4.47;1.90;;;;;;;23.05;29.05;101276.13;5034586;27;97174;-62
2023/06/13 01:58:06;;;;;;;4.80;2.13;;;;;;;23.22;29.04;101277.50;5040939;27;99247;-62
2023/06/13 02:00:34;;;;;;;2.55;1.98;;;;;;;23.26;28.90;101277.13;5036066;27;99073;-61
2023/06/13 02:03:01;;;;;;;3.10;1.90;;;;;;;23.05;29.31;101282.38;5036415;27;96790;-63
2023/06/13 02:05:28;;;;;;;3.15;1.80;;;;;;;22.90;29.74;101269.28;5037687;27;98329;-61
2023/06/13 02:07:56;;;;;;;5.82;2.28;;;;;;;23.10;29.36;101278.50;5036969;27;98870;-62
2023/06/13 02:10:23;;;;;;;3.75;2.05;;;;;;;23.09;29.61;101285.72;5033952;27;98431;-62
2023/06/13 02:12:49;;;;;;;4.70;2.05;;;;;;;22.96;29.70;101276.88;5034837;27;96807;-62
2023/06/13 02:15:16;;;;;;;5.00;2.00;;;;;;;22.97;29.59;101282.13;5042187;27;96817;-62
2023/06/13 02:17:43;;;;;;;5.80;2.17;;;;;;;22.72;30.01;101284.13;5029731;27;99438;-62
2023/06/13 02:20:12;;;;;;;7.63;2.25;;;;;;;22.98;29.58;101281.16;5034661;27;99001;-61
2023/06/13 02:22:38;;;;;;;6.93;2.20;;;;;;;22.87;29.79;101282.97;5032929;27;97581;-62
2023/06/13 02:25:05;;;;;;;5.25;2.30;;;;;;;22.88;30.15;101282.00;5032934;27;96863;-61
2023/06/13 02:27:32;;;;;;;7.03;1.90;;;;;;;22.92;29.92;101278.94;5037580;27;99032;-67
2023/06/13 02:29:58;;;;;;;3.45;2.20;;;;;;;22.83;30.07;101276.13;5044957;27;98859;-67
2023/06/13 02:32:29;;;;;;;4.03;2.10;;;;;;;22.90;30.23;101274.66;5036751;27;96855;-68
2023/06/13 02:34:56;;;;;;;5.85;2.50;;;;;;;22.69;30.40;101276.31;5036639;27;96879;-67
2023/06/13 02:37:23;;;;;;;7.70;3.20;;;;;;;22.69;30.42;101281.69;5037629;27;99269;-67
2023/06/13 02:39:49;;;;;;;4.30;2.17;;;;;;;22.76;30.41;101282.97;5032403;27;98805;-67
2023/06/13 02:42:16;;;;;;;6.45;2.53;;;;;;;22.82;30.49;101277.97;5037373;27;97978;-67
2023/06/13 02:44:42;;;;;;;5.72;2.30;;;;;;;22.78;30.23;101275.59;5033067;27;96876;-67
2023/06/13 02:47:08;;;;;;;5.78;2.53;;;;;;;22.47;30.86;101271.72;5032116;27;98242;-67
2023/06/13 02:49:35;;;;;;;6.55;2.30;;;;;;;22.70;30.64;101272.66;5037490;27;98977;-67
2023/06/13 02:52:03;;;;;;;3.55;2.40;;;;;;;22.70;30.83;101269.94;5035594;27;96891;-67
2023/06/13 02:54:29;;;;;;;4.60;2.30;;;;;;;22.82;30.54;101272.56;5036908;27;97632;-67
2023/06/13 02:56:56;;;;;;;5.93;2.30;;;;;;;22.84;30.64;101273.28;5032537;27;98938;-67
2023/06/13 02:59:22;;;;;;;5.78;2.60;;;;;;;22.80;30.88;101273.66;5031219;27;101211;-67
2023/06/13 03:01:48;;;;;;;4.78;2.65;;;;;;;22.84;30.51;101264.38;5038997;27;97052;-66
2023/06/13 03:04:18;;;;;;;8.80;2.45;;;;;;;22.75;30.88;101265.09;5034033;27;96786;-68
2023/06/13 03:06:44;;;;;;;3.88;1.90;;;;;;;22.69;31.08;101266.41;5037308;27;99080;-67
2023/06/13 03:09:12;;;;;;;4.47;2.17;;;;;;;22.74;31.11;101266.06;5032996;27;99282;-67
2023/06/13 03:11:38;;;;;;;5.50;2.40;;;;;;;22.79;30.89;101262.03;5039695;27;96840;-67
2023/06/13 03:14:06;;;;;;;9.52;2.30;;;;;;;22.64;31.22;101266.72;5032075;27;96817;-67
2023/06/13 03:16:35;;;;;;;6.15;2.42;;;;;;;22.44;31.67;101261.19;5037372;27;98791;-67
2023/06/13 03:19:02;;;;;;;4.43;2.05;;;;;;;22.66;31.43;101262.09;5036650;27;100756;-67
2023/06/13 03:21:28;;;;;;;2.58;2.15;;;;;;;22.66;31.41;101261.22;5034166;27;96801;-67
2023/06/13 03:23:55;;;;;;;9.02;2.38;;;;;;;22.63;31.46;101250.72;5032528;27;96883;-67
2023/06/13 03:26:23;;;;;;;3.13;2.05;;;;;;;22.56;31.63;101249.47;5032746;27;99051;-67
2023/06/13 03:28:49;;;;;;;4.63;2.30;;;;;;;22.46;31.83;101262.78;5034346;27;100890;-68
2023/06/13 03:31:16;;;;;;;4.90;2.63;;;;;;;22.57;31.85;101257.44;5043925;27;96841;-67
2023/06/13 03:33:42;;;;;;;8.52;2.60;;;;;;;22.45;31.96;101250.28;5032979;27;96761;-68
2023/06/13 03:36:09;;;;;;;4.70;2.67;;;;;;;22.54;31.89;101263.06;5037498;27;97848;-67
2023/06/13 03:38:35;;;;;;;3.72;2.25;;;;;;;22.66;31.69;101256.69;5034384;27;99291;-67
2023/06/13 03:41:01;;;;;;;6.40;2.28;;;;;;;22.66;31.79;101256.69;5037253;27;96778;-67
2023/06/13 03:43:29;;;;;;;3.97;2.40;;;;;;;22.76;31.72;101250.66;5031808;27;96737;-67
2023/06/13 03:45:56;;;;;;;7.43;2.38;;;;;;;22.56;31.84;101255.72;5030485;27;99466;-68
2023/06/13 03:48:22;;;;;;;4.45;2.40;;;;;;;22.42;32.52;101255.91;5032003;27;98843;-67
2023/06/13 03:50:48;;;;;;;3.55;2.55;;;;;;;22.51;32.24;101249.81;5034784;27;97103;-67
2023/06/13 03:53:15;;;;;;;3.65;2.78;;;;;;;22.78;31.80;101251.34;5027119;27;97643;-67
2023/06/13 03:55:44;;;;;;;8.15;3.70;;;;;;;22.75;31.99;101249.78;5037966;27;101281;-68
2023/06/13 03:58:12;;;;;;;3.55;2.35;;;;;;;22.66;32.21;101248.63;5032630;27;99074;-68
2023/06/13 04:00:40;;;;;;;4.88;2.60;;;;;;;22.56;32.32;101250.34;5040049;27;96942;-68
2023/06/13 04:03:08;;;;;;;3.83;2.63;;;;;;;22.58;32.47;101244.81;5031601;27;98059;-67
2023/06/13 04:05:34;;;;;;;5.65;2.63;;;;;;;22.35;32.78;101241.22;5038624;27;99154;-67
2023/06/13 04:08:01;;;;;;;6.07;4.28;;;;;;;22.51;32.45;101243.59;5036493;27;100966;-68
2023/06/13 04:10:27;;;;;;;5.93;2.58;;;;;;;22.70;32.48;101237.63;5037848;27;97091;-68
2023/06/13 04:12:54;;;;;;;13.52;2.63;;;;;;;22.67;32.27;101236.03;5037781;27;96837;-67
2023/06/13 04:15:21;;;;;;;6.35;2.45;;;;;;;22.86;32.11;101239.00;5038258;27;99189;-67
2023/06/13 04:17:52;;;;;;;9.25;2.85;;;;;;;22.83;32.05;101239.28;5033476;27;100669;-67
2023/06/13 04:20:21;;;;;;;5.15;2.63;;;;;;;22.82;32.15;101234.00;5032561;27;96829;-68
2023/06/13 04:22:48;;;;;;;8.30;2.72;;;;;;;22.87;32.07;101237.19;5032487;27;96869;-68
2023/06/13 04:25:15;;;;;;;5.53;2.67;;;;;;;22.86;32.35;101238.16;5032950;27;99291;-68
2023/06/13 04:27:43;;;;;;;6.72;2.60;;;;;;;22.59;32.54;101241.13;5032047;27;99180;-69
2023/06/13 04:30:11;;;;;;;5.20;2.33;;;;;;;22.79;32.62;101240.47;5031352;27;97038;-67
2023/06/13 04:32:39;;;;;;;7.55;3.17;;;;;;;22.81;32.70;101243.06;5036925;27;97139;-68
2023/06/13 04:35:07;;;;;;;12.35;3.05;;;;;;;22.82;32.90;101260.94;5041007;27;99356;-68
2023/06/13 04:37:34;;;;;;;5.85;3.35;;;;;;;22.69;33.21;101261.00;5043129;27;98060;-68
2023/06/13 04:40:02;;;;;;;5.40;2.88;;;;;;;22.54;33.33;101262.19;5035548;27;96972;-67
2023/06/13 04:42:28;;;;;;;5.40;2.85;;;;;;;23.11;32.39;101262.16;5042336;27;96985;-67
2023/06/13 04:44:56;;;;;;;3.90;2.80;;;;;;;23.29;32.38;101263.41;5035735;27;98866;-67
2023/06/13 04:47:24;;;;;;;7.20;3.20;;;;;;;23.10;32.50;101263.19;5035993;27;99491;-67
2023/06/13 04:49:58;;;;;;;4.75;3.08;;;;;;;23.14;32.22;101261.94;5035333;27;96796;-69
2023/06/13 04:52:26;;;;;;;3.97;2.65;;;;;;;23.42;31.95;101263.28;5038284;27;97407;-68
2023/06/13 04:54:54;;;;;;;7.15;2.85;;;;;;;23.35;32.05;101262.91;5036519;27;99786;-68
2023/06/13 04:57:21;;;;;;;8.85;3.20;;;;;;;23.70;31.74;101260.06;5040141;27;98963;-67
2023/06/13 04:59:47;;;;;;;5.88;2.95;;;;;;;23.37;31.98;101258.25;5038077;27;96779;-67
2023/06/13 05:02:15;;;;;;;6.10;3.08;;;;;;;23.81;30.95;101262.75;5040500;27;98260;-68
2023/06/13 05:04:42;;;;;;;6.95;2.90;;;;;;;;;;5036626;27;99326;-67
2023/06/13 05:07:08;;;;;;;6.55;2.70;;;;;;;24.35;30.38;101253.69;5035814;27;98875;-68
2023/06/13 05:09:36;;;;;;;5.47;3.05;;;;;;;24.39;30.01;101252.47;5034717;27;96764;-68
2023/06/13 05:12:03;;;;;;;7.35;3.15;;;;;;;24.11;29.77;101259.31;5036922;27;97130;-67
2023/06/13 05:14:30;;;;;;;8.85;3.30;;;;;;;24.24;29.89;101259.16;5032687;27;99393;-67
2023/06/13 05:16:56;;;;;;;9.88;3.08;;;;;;;24.35;29.62;101256.41;5042945;27;99643;-68
2023/06/13 05:19:23;;;;;;;8.85;3.00;;;;;;;24.39;29.52;101252.47;5040700;27;96775;-67
2023/06/13 05:21:50;;;;;;;9.50;2.97;;;;;;;24.40;29.23;101242.53;5040778;27;96818;-67
2023/06/13 05:24:17;;;;;;;7.35;2.90;;;;;;;24.84;28.49;101242.22;5039364;27;98899;-68
2023/06/13 05:26:44;;;;;;;6.50;2.97;;;;;;;24.93;28.68;101241.47;5034795;27;98839;-68
2023/06/13 05:29:11;;;;;;;8.95;3.10;;;;;;;25.22;28.62;101241.56;5038847;27;98083;-69
2023/06/13 05:31:37;;;;;;;8.48;3.70;;;;;;;25.46;27.63;101243.94;5041126;27;97457;-68
2023/06/13 05:34:04;;;;;;;7.07;3.28;;;;;;;25.39;28.00;101240.94;5034038;27;99108;-69
2023/06/13 05:36:30;;;;;;;6.80;3.60;;;;;;;25.52;28.02;101235.28;5032018;27;99010;-70
2023/06/13 05:38:57;;;;;;;10.00;3.45;;;;;;;25.41;27.60;101241.63;5037438;27;96798;-67
2023/06/13 05:41:24;;;;;;;17.75;4.35;;;;;;;25.58;27.38;101237.47;5034475;27;97377;-66
2023/06/13 05:43:51;;;;;;;8.80;3.40;;;;;;;25.63;27.40;101235.19;5036312;27;97710;-67
2023/06/13 05:46:18;;;;;;;6.18;3.30;;;;;;;25.69;27.02;101242.75;5035665;27;99371;-68
2023/06/13 05:48:44;;;;;;;9.75;3.83;;;;;;;25.65;26.99;101249.44;5038563;27;96797;-68
2023/06/13 05:51:11;;;;;;;11.68;3.60;;;;;;;25.70;26.79;101247.16;5036287;27;97297;-68
2023/06/13 05:53:37;;;;;;;5.25;3.15;;;;;;;25.69;27.15;101244.59;5037012;27;99063;-69
2023/06/13 05:56:06;;;;;;;8.45;3.13;;;;;;;25.64;26.89;101250.44;5039402;27;96786;-68
2023/06/13 05:58:32;;;;;;;9.15;3.47;;;;;;;25.68;26.87;101243.72;5034115;27;96888;-67
2023/06/13 06:01:01;;;;;;;10.60;3.25;;;;;;;25.85;27.04;101244.91;5035233;27;97545;-68
2023/06/13 06:03:29;;;;;;;10.57;3.65;;;;;;;25.82;26.95;101244.31;5041848;27;98957;-67
2023/06/13 06:05:56;;;;;;;9.18;3.30;;;;;;;25.96;26.87;101243.91;5033603;27;101653;-67
2023/06/13 06:08:22;;;;;;;10.68;3.40;;;;;;;25.80;26.26;101248.03;5039788;27;97498;-68
2023/06/13 06:10:49;;;;;;;8.50;3.03;;;;;;;25.76;26.36;101252.00;5036674;27;96810;-68
2023/06/13 06:13:15;;;;;;;8.38;3.22;;;;;;;25.58;26.78;101251.00;5034278;27;99038;-68
2023/06/13 06:15:42;;;;;;;11.80;3.17;;;;;;;25.37;27.05;101247.47;5034986;27;99436;-63
2023/06/13 06:18:10;;;;;;;14.00;3.78;;;;;;;25.39;27.21;101246.34;5043102;27;97052;-62
2023/06/13 06:20:36;;;;;;;5.95;3.20;;;;;;;25.31;27.38;101250.72;5033691;27;96912;-62
2023/06/13 06:23:03;;;;;;;8.27;4.55;;;;;;;25.39;27.24;101248.19;5046079;27;100964;-63
2023/06/13 06:25:29;;;;;;;5.45;3.13;;;;;;;25.44;27.07;101245.94;5034394;27;98805;-62
2023/06/13 06:27:56;;;;;;;9.60;3.38;;;;;;;25.30;27.55;101249.88;5033177;27;96855;-62
2023/06/13 06:30:23;;;;;;;8.50;3.10;;;;;;;25.31;27.77;101256.13;5033752;27;96981;-61
2023/06/13 06:32:49;;;;;;;7.95;3.45;;;;;;;25.21;27.13;101247.97;5032765;27;99073;-63
2023/06/13 06:35:17;;;;;;;10.60;3.85;;;;;;;25.31;27.75;101250.72;5035579;27;98919;-65
2023/06/13 06:37:44;;;;;;;10.90;3.90;;;;;;;25.32;27.64;101260.56;5044071;27;97424;-62
2023/06/13 06:40:11;;;;;;;17.75;3.35;;;;;;;25.42;27.71;101253.31;5033970;27;96784;-62
2023/06/13 06:42:37;;;;;;;10.65;3.70;;;;;;;25.57;27.42;101249.28;5035301;27;97805;-63
2023/06/13 06:45:05;;;;;;;11.60;3.38;;;;;;;25.51;26.89;101257.06;5039358;27;98808;-61
2023/06/13 06:47:31;;;;;;;12.77;3.85;;;;;;;25.61;26.54;101247.13;5042393;27;96877;-65
2023/06/13 06:49:58;;;;;;;12.13;3.90;;;;;;;25.90;26.02;101241.78;5040947;27;97341;-62
2023/06/13 06:52:26;;;;;;;14.40;3.80;;;;;;;25.92;26.11;101239.78;5033107;27;97263;-62
2023/06/13 06:54:52;;;;;;;12.65;3.97;;;;;;;26.09;25.79;101242.66;5037297;27;98796;-63
2023/06/13 06:57:18;;;;;;;8.80;3.38;;;;;;;25.67;26.33;101242.03;5035513;27;97668;-63
2023/06/13 06:59:45;;;;;;;9.73;3.00;;;;;;;25.79;26.30;101240.94;5032535;27;97007;-62
2023/06/13 07:02:11;;;;;;;11.45;4.03;;;;;;;25.71;26.91;101235.34;5039434;27;99216;-62
2023/06/13 07:04:37;;;;;;;8.50;3.60;;;;;;;25.98;26.18;101228.41;5037242;27;97571;-62
2023/06/13 07:07:04;;;;;;;12.10;3.38;;;;;;;26.27;26.22;101234.69;5039810;27;96822;-62
2023/06/13 07:09:32;;;;;;;7.70;3.30;;;;;;;26.12;25.92;101225.25;5035746;27;97100;-62
2023/06/13 07:11:58;;;;;;;7.60;2.95;;;;;;;26.63;24.76;101224.94;5033665;27;98542;-61
2023/06/13 07:14:25;;;;;;;7.03;3.00;;;;;;;26.71;24.23;101222.34;5036178;27;98742;-62
2023/06/13 07:16:52;;;;;;;3.95;2.70;;;;;;;26.57;24.80;101223.66;5033647;27;96735;-63
2023/06/13 07:19:18;;;;;;;9.05;3.42;;;;;;;26.32;24.09;101223.44;5030674;27;96900;-63
2023/06/13 07:21:45;;;;;;;10.10;3.53;;;;;;;26.50;24.33;101229.81;5033279;27;99718;-63
2023/06/13 07:24:11;;;;;;;20.73;4.00;;;;;;;26.20;24.76;101225.38;5032557;27;99501;-61
2023/06/13 07:26:39;;;;;;;19.58;3.55;;;;;;;26.06;25.34;101225.81;5035303;27;96697;-62
2023/06/13 07:29:05;;;;;;;12.38;3.42;;;;;;;26.18;25.08;101233.66;5035755;27;96942;-62
2023/06/13 07:31:32;;;;;;;5.50;3.20;;;;;;;26.48;25.12;101235.38;5033475;27;99372;-63
2023/06/13 07:33:58;;;;;;;16.02;3.17;;;;;;;26.67;24.31;101237.19;5035589;27;98244;-63
2023/06/13 07:36:27;;;;;;;9.02;3.22;;;;;;;26.44;24.76;101236.66;5032779;27;96863;-62
2023/06/13 07:38:53;;;;;;;12.60;3.70;;;;;;;26.83;24.59;101237.44;5034658;27;96895;-62
2023/06/13 07:41:20;;;;;;;7.40;3.10;;;;;;;26.85;24.65;101238.13;5026730;27;98916;-62
2023/06/13 07:43:49;;;;;;;10.05;3.22;;;;;;;27.25;24.05;101240.56;5036798;27;98099;-62
2023/06/13 07:46:16;;;;;;;7.35;3.95;;;;;;;27.30;23.82;101234.72;5033342;27;96834;-62
2023/06/13 07:48:42;;;;;;;8.35;3.50;;;;;;;27.45;24.24;101237.75;5037040;27;96807;-64
2023/06/13 07:51:09;;;;;;;11.35;3.17;;;;;;;27.55;24.00;101241.31;5034039;27;99172;-62
2023/06/13 07:53:35;;;;;;;9.23;3.25;;;;;;;27.63;24.09;101238.69;5038232;27;98887;-62
2023/06/13 07:56:04;;;;;;;16.15;3.55;;;;;;;27.61;24.30;101244.28;5035333;27;96822;-61
2023/06/13 07:58:30;;;;;;;9.05;2.95;;;;;;;27.93;24.32;101242.91;5035161;27;97040;-61
2023/06/13 08:00:58;;;;;;;11.63;3.70;;;;;;;27.97;24.12;101238.88;5036900;27;99174;-62
2023/06/13 08:03:25;;;;;;;12.07;3.75;;;;;;;28.18;24.32;101241.31;5024901;27;101941;-62
2023/06/13 08:05:51;;;;;;;12.75;3.38;;;;;;;28.12;24.39;101231.88;5031273;27;97071;-62
2023/06/13 08:08:17;;;;;;;14.18;3.72;;;;;;;28.21;24.40;101235.56;5023716;27;97349;-62
2023/06/13 08:10:44;;;;;;;12.68;3.58;;;;;;;28.27;24.43;101226.78;5028692;27;99108;-63
2023/06/13 08:13:10;;;;;;;7.22;3.10;;;;;;;28.39;24.25;101231.81;5028375;27;98906;-63
2023/06/13 08:15:36;;;;;;;15.85;3.70;;;;;;;28.40;23.38;101225.38;5031286;27;99688;-63
2023/06/13 08:18:05;;;;;;;6.88;3.28;;;;;;;28.31;23.11;101225.44;5023738;27;96817;-62
2023/06/13 08:20:32;;;;;;;7.80;3.38;;;;;;;27.99;23.02;101226.00;5025825;27;98878;-62
2023/06/13 08:22:59;;;;;;;8.82;3.05;;;;;;;27.90;23.19;101224.19;5025750;27;98754;-62
2023/06/13 08:25:26;;;;;;;7.03;3.30;;;;;;;27.77;23.42;101224.56;5031689;27;96809;-62
2023/06/13 08:27:52;;;;;;;9.57;3.05;;;;;;;28.06;23.16;101219.78;5029841;27;97268;-62
2023/06/13 08:30:19;;;;;;;12.13;2.75;;;;;;;28.02;23.60;101221.13;5025433;27;99209;-62
2023/06/13 08:32:46;;;;;;;12.18;3.30;;;;;;;27.90;23.29;101216.03;5035434;27;99262;-67
2023/06/13 08:35:14;;;;;;;7.30;3.80;;;;;;;27.97;23.19;101217.13;5028559;27;97259;-67
2023/06/13 08:37:40;;;;;;;9.82;3.53;;;;;;;28.13;23.17;101226.31;5025252;27;96880;-68
2023/06/13 08:40:10;;;;;;;9.52;2.83;;;;;;;28.34;22.06;101220.56;5029670;27;100282;-68
2023/06/13 08:42:37;;;;;;;9.75;2.75;;;;;;;28.35;22.16;101221.44;5038819;27;98861;-68
2023/06/13 08:45:04;;;;;;;10.45;3.22;;;;;;;28.16;22.30;101227.88;5028496;27;96813;-68
2023/06/13 08:47:34;;;;;;;11.93;3.22;;;;;;;27.94;22.57;101226.47;5034382;27;96994;-67
2023/06/13 08:50:01;;;;;;;9.93;3.38;;;;;;;28.11;22.61;101228.31;5030143;27;99361;-68
2023/06/13 08:52:32;;;;;;;4.97;2.72;;;;;;;28.14;22.45;101232.63;5033008;27;99348;-68
2023/06/13 08:55:00;;;;;;;6.47;2.70;;;;;;;28.17;22.84;101237.72;5034074;27;96926;-68
2023/06/13 08:57:28;;;;;;;9.02;3.08;;;;;;;28.33;22.26;101229.72;5023189;27;96816;-70
2023/06/13 08:59:56;;;;;;;4.95;3.20;;;;;;;28.45;22.33;101233.03;5027998;27;97680;-68
2023/06/13 09:02:24;;;;;;;9.10;2.78;;;;;;;28.24;21.97;101230.66;5024464;27;98874;-69
2023/06/13 09:04:51;;;;;;;6.00;2.72;;;;;;;28.51;21.99;101221.53;5030167;27;96858;-67
2023/06/13 09:07:21;;;;;;;6.55;2.25;;;;;;;28.53;21.98;101228.53;5027793;27;97527;-68
2023/06/13 09:09:51;;;;;;;5.03;2.70;;;;;;;28.71;22.12;101227.63;5036914;27;99018;-68
2023/06/13 09:12:18;;;;;;;6.53;2.72;;;;;;;28.72;21.64;101222.03;5027417;27;97864;-68
2023/06/13 09:14:45;;;;;;;9.88;3.60;;;;;;;28.81;21.73;101223.81;5033180;27;97070;-68
2023/06/13 09:17:13;;;;;;;16.52;4.10;;;;;;;29.16;21.70;101224.66;5030090;27;97368;-68
2023/06/13 09:19:39;;;;;;;105.10;10.50;;;;;;;29.29;21.75;101217.75;5033097;27;98862;-68
2023/06/13 09:22:06;;;;;;;54.75;6.15;;;;;;;29.07;21.85;101217.50;5031979;27;98385;-68
2023/06/13 09:24:33;;;;;;;7.13;2.95;;;;;;;28.94;21.66;101226.09;5029511;27;97488;-69
2023/06/13 09:27:04;;;;;;;8.38;2.88;;;;;;;28.75;21.86;101224.44;5031665;27;97985;-68
2023/06/13 09:29:34;;;;;;;14.50;2.80;;;;;;;29.06;21.87;101215.78;5029217;27;99119;-67
2023/06/13 09:32:02;;;;;;;10.00;2.70;;;;;;;29.27;21.65;101213.50;5033705;27;98776;-68
2023/06/13 09:34:29;;;;;;;9.35;2.88;;;;;;;29.22;20.90;101222.13;5032111;27;96736;-68
2023/06/13 09:36:57;;;;;;;8.55;2.88;;;;;;;29.19;20.67;101216.19;5025031;27;97609;-68
2023/06/13 09:39:24;;;;;;;4.15;2.38;;;;;;;29.37;20.05;101219.69;5027285;27;99266;-68
2023/06/13 09:41:53;;;;;;;8.10;2.60;;;;;;;29.44;19.58;101215.28;5030728;27;98467;-68
2023/06/13 09:44:22;;;;;;;9.55;2.20;;;;;;;29.49;19.10;101221.09;5026960;27;96886;-67
2023/06/13 09:46:50;;;;;;;8.30;2.35;;;;;;;29.52;18.47;101212.59;5032838;27;96827;-68
2023/06/13 09:49:17;;;;;;;11.45;2.38;;;;;;;29.67;19.06;101210.06;5032293;27;99222;-67
2023/06/13 09:51:43;;;;;;;4.28;2.38;;;;;;;29.44;18.82;101220.72;5029514;27;100526;-68
2023/06/13 09:54:10;;;;;;;6.18;2.30;;;;;;;29.35;18.97;101223.56;5030607;27;96764;-67
2023/06/13 09:56:36;;;;;;;10.95;2.60;;;;;;;29.25;19.43;101204.66;5033794;27;96855;-68
2023/06/13 09:59:03;;;;;;;10.05;2.45;;;;;;;29.17;19.45;101226.38;5031320;27;101276;-68
2023/06/13 10:01:34;;;;;;;11.27;2.65;;;;;;;29.25;19.64;101229.13;5029316;27;99248;-68
2023/06/13 10:04:02;;;;;;;9.65;2.40;;;;;;;29.26;19.33;101222.69;5028407;27;96898;-67
2023/06/13 10:06:29;;;;;;;4.28;2.58;;;;;;;29.54;19.30;101221.44;5041968;27;97287;-67
2023/06/13 10:08:55;;;;;;;6.35;2.10;;;;;;;29.69;18.88;101224.38;5041315;27;98988;-69
2023/06/13 10:11:24;;;;;;;6.75;2.15;;;;;;;29.81;19.05;101222.19;5037973;27;98946;-69
2023/06/13 10:13:56;;;;;;;8.85;2.42;;;;;;;29.72;18.74;101213.16;5034554;27;96974;-67
2023/06/13 10:16:25;;;;;;;9.35;2.38;;;;;;;29.75;19.42;101220.97;5038654;27;97044;-68
2023/06/13 10:18:54;;;;;;;7.03;2.63;;;;;;;29.88;19.74;101215.03;5029344;27;99247;-68
2023/06/13 10:21:22;;;;;;;6.28;2.67;;;;;;;29.90;18.97;101215.72;5028819;27;98810;-67
2023/06/13 10:23:51;;;;;;;3.95;2.17;;;;;;;29.64;18.93;101211.25;5031708;27;97246;-69
2023/06/13 10:26:35;;;;;;;9.18;2.35;;;;;;;29.52;19.20;101214.47;5036826;27;97678;-69
2023/06/13 10:29:48;;;;;;;5.32;2.38;;;;;;;29.35;19.68;101210.81;5027582;27;100600;-68
2023/06/13 10:32:29;;;;;;;7.15;2.58;;;;;;;29.45;20.00;101197.94;4969132;28;98794;-69
2023/06/13 10:35:20;;;;;;;15.27;2.70;;;;;;;29.48;19.41;101192.16;4968999;28;97042;-68
2023/06/13 10:38:07;;;;;;;14.93;2.50;;;;;;;29.52;18.75;101190.81;5009365;27;96934;-69
2023/06/13 10:40:55;;;;;;;10.15;3.70;;;;;;;29.08;19.44;101195.53;5024032;27;99231;-70
2023/06/13 10:43:30;;;;;;;13.68;2.75;;;;;;;29.23;19.50;101193.91;5026482;27;97734;-68
2023/06/13 10:46:03;;;;;;;13.27;2.92;;;;;;;29.30;19.34;101199.56;5036341;27;96726;-68
2023/06/13 10:48:35;;;;;;;5.53;3.50;;;;;;;29.20;19.42;101196.13;5030045;27;97266;-67
2023/06/13 10:51:03;;;;;;;16.63;2.70;;;;;;;29.22;19.53;101203.09;5027929;27;98913;-68
2023/06/13 10:53:32;;;;;;;9.50;3.15;;;;;;;29.52;19.52;101196.25;5035756;27;99012;-68
2023/06/13 10:56:01;;;;;;;6.88;2.97;;;;;;;29.36;19.89;101190.75;5034106;27;98081;-68
2023/06/13 10:58:29;;;;;;;15.85;2.60;;;;;;;29.45;19.65;101195.22;5026560;27;97029;-69
2023/06/13 11:00:55;;;;;;;6.28;2.15;;;;;;;29.26;19.77;101206.34;5026439;27;99324;-68
2023/06/13 11:03:30;;;;;;;11.07;2.85;;;;;;;29.10;20.35;101203.56;5032694;27;101008;-69
2023/06/13 11:05:56;;;;;;;8.75;2.50;;;;;;;29.18;20.34;101211.75;5032294;27;96698;-68
2023/06/13 11:08:25;;;;;;;8.52;2.55;;;;;;;29.14;20.01;101207.66;5031947;27;97246;-68
2023/06/13 11:10:53;;;;;;;14.30;2.15;;;;;;;29.23;20.03;101212.97;5024608;27;98915;-68
2023/06/13 11:13:21;;;;;;;10.70;2.22;;;;;;;29.33;19.28;101210.13;5029982;27;98980;-69
2023/06/13 11:15:50;;;;;;;11.10;2.40;;;;;;;29.50;18.96;101214.63;5021964;27;97111;-68
2023/06/13 11:18:29;;;;;;;13.02;1.98;;;;;;;29.61;18.33;101200.69;5032452;27;97205;-69
2023/06/13 11:20:57;;;;;;;4.70;2.08;;;;;;;29.53;17.90;101205.28;5028250;27;99973;-68
2023/06/13 11:23:37;;;;;;;3.03;1.52;;;;;;;29.43;18.50;101208.13;5030753;27;99146;-68
2023/06/13 11:26:04;;;;;;;5.57;1.98;;;;;;;29.48;18.94;101203.03;5030369;27;97497;-67
2023/06/13 11:28:31;;;;;;;3.55;2.53;;;;;;;29.65;18.38;101202.09;5029720;27;97119;-67